createdAt,value
2023-09-04T00:01:28.115Z,13.55
2023-09-04T00:03:55.713Z,13.46
2023-09-04T00:06:23.287Z,13.53
2023-09-04T00:08:50.837Z,13.51
2023-09-04T00:11:18.417Z,13.43
2023-09-04T00:13:45.946Z,13.41
2023-09-04T00:16:13.517Z,13.41
2023-09-04T00:18:41.773Z,13.41
2023-09-04T00:21:09.320Z,13.38
2023-09-04T00:23:36.915Z,13.39
2023-09-04T00:26:04.508Z,13.40
2023-09-04T00:28:32.183Z,13.42
2023-09-04T00:31:00.271Z,13.38
2023-09-04T00:33:27.785Z,13.39
2023-09-04T00:35:55.373Z,13.36
2023-09-04T00:38:23.336Z,13.35
2023-09-04T00:40:51.108Z,13.32
2023-09-04T00:43:18.699Z,13.29
2023-09-04T00:45:47.697Z,13.29
2023-09-04T00:48:15.911Z,13.29
2023-09-04T00:50:44.322Z,13.32
2023-09-04T00:53:12.476Z,13.31
2023-09-04T00:55:40.575Z,13.33
2023-09-04T00:58:08.171Z,13.32
2023-09-04T01:00:35.892Z,13.30
2023-09-04T01:03:04.605Z,13.31
2023-09-04T01:05:33.459Z,13.27
2023-09-04T01:08:03.148Z,13.29
2023-09-04T01:10:39.100Z,13.28
2023-09-04T01:13:15.200Z,13.31
2023-09-04T01:15:43.195Z,13.27
2023-09-04T01:18:11.779Z,13.24
2023-09-04T01:20:39.762Z,13.26
2023-09-04T01:23:07.752Z,13.27
2023-09-04T01:25:46.217Z,13.26
2023-09-04T01:28:58.282Z,13.17
2023-09-04T01:31:41.577Z,13.16
2023-09-04T01:34:12.176Z,13.15
2023-09-04T01:36:40.390Z,13.10
2023-09-04T01:39:08.627Z,13.20
2023-09-04T01:41:40.207Z,13.18
2023-09-04T01:44:08.355Z,13.14
2023-09-04T01:46:36.574Z,13.13
2023-09-04T01:49:04.334Z,13.12
2023-09-04T01:51:31.858Z,13.14
2023-09-04T01:53:59.464Z,13.15
2023-09-04T01:56:27.243Z,13.13
2023-09-04T01:58:54.807Z,13.18
2023-09-04T02:01:22.412Z,13.21
2023-09-04T02:03:57.883Z,13.19
2023-09-04T02:06:27.528Z,13.16
2023-09-04T02:08:57.660Z,13.09
2023-09-04T02:11:26.178Z,13.07
2023-09-04T02:13:54.434Z,12.99
2023-09-04T02:16:23.835Z,12.98
2023-09-04T02:18:52.339Z,12.94
2023-09-04T02:21:19.908Z,12.95
2023-09-04T02:23:48.729Z,12.96
2023-09-04T02:26:16.282Z,12.85
2023-09-04T02:28:43.945Z,12.84
2023-09-04T02:31:12.701Z,12.85
2023-09-04T02:33:40.403Z,12.83
2023-09-04T02:36:07.883Z,12.79
2023-09-04T02:38:35.401Z,12.83
2023-09-04T02:41:03.090Z,12.86
2023-09-04T02:43:30.604Z,12.88
2023-09-04T02:45:59.184Z,12.84
2023-09-04T02:48:27.290Z,12.88
2023-09-04T02:51:01.431Z,12.88
2023-09-04T02:53:29.623Z,12.81
2023-09-04T02:55:57.877Z,12.84
2023-09-04T02:58:25.811Z,12.83
2023-09-04T03:00:53.991Z,12.83
2023-09-04T03:03:21.744Z,12.80
2023-09-04T03:05:49.382Z,12.76
2023-09-04T03:08:18.349Z,12.75
2023-09-04T03:10:45.903Z,12.71
2023-09-04T03:13:13.504Z,12.66
2023-09-04T03:15:41.198Z,12.65
2023-09-04T03:18:10.652Z,12.68
2023-09-04T03:20:39.124Z,12.64
2023-09-04T03:23:06.703Z,12.62
2023-09-04T03:25:37.270Z,12.63
2023-09-04T03:28:05.668Z,12.62
2023-09-04T03:30:35.553Z,12.58
2023-09-04T03:33:05.911Z,12.60
2023-09-04T03:35:33.490Z,12.57
2023-09-04T03:38:01.278Z,12.54
2023-09-04T03:40:30.444Z,12.51
2023-09-04T03:42:59.107Z,12.48
2023-09-04T03:45:33.576Z,12.47
2023-09-04T03:48:01.301Z,12.43
2023-09-04T03:50:29.146Z,12.41
2023-09-04T03:52:56.749Z,12.39
2023-09-04T03:55:24.574Z,12.36
2023-09-04T03:57:52.982Z,12.35
2023-09-04T04:00:23.897Z,12.32
2023-09-04T04:02:52.896Z,12.32
2023-09-04T04:05:21.991Z,12.33
2023-09-04T04:07:49.875Z,12.33
2023-09-04T04:10:20.578Z,12.34
2023-09-04T04:12:52.255Z,12.35
2023-09-04T04:15:20.750Z,12.36
2023-09-04T04:17:48.716Z,12.20
2023-09-04T04:20:17.405Z,12.16
2023-09-04T04:22:44.873Z,12.15
2023-09-04T04:25:12.559Z,12.12
2023-09-04T04:27:40.264Z,12.12
2023-09-04T04:30:10.243Z,12.13
2023-09-04T04:32:39.007Z,12.25
2023-09-04T04:35:08.593Z,12.57
2023-09-04T04:37:37.386Z,13.02
2023-09-04T04:40:06.202Z,13.46
2023-09-04T04:42:35.531Z,13.64
2023-09-04T04:45:04.820Z,14.17
2023-09-04T04:47:32.571Z,14.85
2023-09-04T04:50:00.307Z,15.57
2023-09-04T04:52:28.029Z,16.22
2023-09-04T04:54:55.647Z,16.87
2023-09-04T04:57:23.163Z,17.32
2023-09-04T04:59:50.801Z,17.69
2023-09-04T05:02:18.647Z,18.04
2023-09-04T05:04:47.284Z,18.60
2023-09-04T05:07:17.465Z,18.90
2023-09-04T05:09:45.324Z,18.84
2023-09-04T05:12:12.844Z,19.08
2023-09-04T05:14:40.897Z,19.30
2023-09-04T05:17:08.575Z,19.47
2023-09-04T05:19:37.024Z,19.61
2023-09-04T05:22:05.226Z,19.55
2023-09-04T05:24:32.828Z,19.73
2023-09-04T05:27:00.316Z,19.80
2023-09-04T05:29:27.892Z,20.36
2023-09-04T05:31:55.461Z,20.65
2023-09-04T05:34:23.613Z,20.97
2023-09-04T05:36:51.266Z,21.06
2023-09-04T05:39:18.938Z,20.90
2023-09-04T05:41:46.931Z,21.02
2023-09-04T05:44:14.565Z,21.17
2023-09-04T05:46:42.116Z,21.38
2023-09-04T05:49:09.686Z,21.63
2023-09-04T05:51:37.113Z,21.78
2023-09-04T05:54:04.855Z,22.00
2023-09-04T05:56:32.299Z,22.35
2023-09-04T05:58:59.862Z,22.38
2023-09-04T06:01:28.811Z,22.61
2023-09-04T06:03:56.465Z,22.64
2023-09-04T06:06:25.947Z,22.58
2023-09-04T06:08:53.512Z,22.53
2023-09-04T06:11:21.563Z,22.66
2023-09-04T06:13:50.183Z,22.64
2023-09-04T06:16:20.567Z,23.03
2023-09-04T06:18:48.292Z,22.85
2023-09-04T06:21:15.787Z,23.21
2023-09-04T06:23:45.532Z,23.17
2023-09-04T06:26:14.188Z,22.75
2023-09-04T06:28:43.996Z,22.74
2023-09-04T06:31:11.761Z,23.02
2023-09-04T06:33:39.597Z,23.28
2023-09-04T06:36:07.266Z,23.53
2023-09-04T06:38:34.844Z,23.36
2023-09-04T06:41:02.413Z,23.28
2023-09-04T06:43:31.114Z,23.30
2023-09-04T06:45:59.908Z,23.49
2023-09-04T06:48:28.692Z,23.69
2023-09-04T06:50:56.718Z,23.06
2023-09-04T06:53:24.888Z,23.32
2023-09-04T06:55:53.343Z,22.89
2023-09-04T06:58:21.148Z,22.40
2023-09-04T07:00:50.119Z,22.39
2023-09-04T07:03:19.753Z,22.68
2023-09-04T07:05:47.352Z,23.55
2023-09-04T07:08:14.942Z,23.87
2023-09-04T07:10:43.966Z,24.02
2023-09-04T07:13:11.525Z,23.72
2023-09-04T07:15:39.105Z,24.21
2023-09-04T07:18:07.117Z,24.49
2023-09-04T07:20:35.156Z,24.27
2023-09-04T07:23:18.418Z,24.64
2023-09-04T07:25:47.991Z,24.69
2023-09-04T07:28:15.646Z,24.68
2023-09-04T07:30:43.185Z,24.66
2023-09-04T07:33:10.852Z,23.91
2023-09-04T07:35:38.485Z,23.63
2023-09-04T07:38:05.961Z,23.54
2023-09-04T07:40:35.289Z,23.48
2023-09-04T07:43:03.134Z,23.92
2023-09-04T07:45:30.767Z,23.93
2023-09-04T07:47:58.349Z,23.54
2023-09-04T07:50:26.015Z,23.64
2023-09-04T07:52:55.968Z,22.71
2023-09-04T07:55:23.521Z,21.48
2023-09-04T07:57:51.045Z,20.98
2023-09-04T08:00:23.084Z,21.05
2023-09-04T08:02:51.638Z,20.99
2023-09-04T08:05:19.172Z,20.90
2023-09-04T08:07:46.749Z,21.08
2023-09-04T08:10:14.775Z,21.06
2023-09-04T08:12:42.991Z,21.29
2023-09-04T08:15:11.823Z,21.56
2023-09-04T08:17:42.405Z,21.99
2023-09-04T08:20:10.632Z,22.23
2023-09-04T08:22:38.156Z,22.27
2023-09-04T08:25:06.235Z,21.91
2023-09-04T08:27:33.769Z,22.26
2023-09-04T08:30:01.511Z,22.42
2023-09-04T08:32:29.035Z,22.79
2023-09-04T08:34:56.717Z,22.23
2023-09-04T08:37:24.705Z,22.57
2023-09-04T08:39:52.231Z,22.44
2023-09-04T08:42:20.492Z,22.93
2023-09-04T08:44:50.355Z,23.13
2023-09-04T08:47:21.553Z,22.95
2023-09-04T08:49:49.576Z,22.64
2023-09-04T08:52:17.355Z,21.95
2023-09-04T08:54:46.153Z,21.79
2023-09-04T08:57:15.092Z,21.61
2023-09-04T08:59:42.805Z,21.62
2023-09-04T09:02:16.632Z,22.06
2023-09-04T09:04:44.245Z,21.58
2023-09-04T09:07:12.267Z,21.27
2023-09-04T09:09:50.937Z,21.05
2023-09-04T09:12:18.864Z,20.71
2023-09-04T09:14:46.475Z,20.83
2023-09-04T09:17:17.101Z,21.55
2023-09-04T09:19:45.141Z,21.75
2023-09-04T09:22:17.482Z,21.21
2023-09-04T09:24:56.406Z,20.81
2023-09-04T09:27:26.266Z,21.57
2023-09-04T09:29:58.565Z,22.31
2023-09-04T09:32:31.986Z,22.27
2023-09-04T09:35:01.595Z,21.84
2023-09-04T09:37:33.125Z,21.83
2023-09-04T09:40:00.697Z,21.41
2023-09-04T09:42:28.442Z,20.64
2023-09-04T09:44:56.082Z,20.55
2023-09-04T09:47:23.638Z,20.88
2023-09-04T09:49:51.176Z,20.93
2023-09-04T09:52:18.924Z,21.70
2023-09-04T09:54:48.520Z,21.77
2023-09-04T09:57:20.337Z,21.88
2023-09-04T09:59:52.217Z,21.47
2023-09-04T10:02:28.789Z,20.90
2023-09-04T10:04:58.270Z,20.96
2023-09-04T10:07:29.028Z,21.53
2023-09-04T10:10:04.691Z,21.95
2023-09-04T10:12:57.779Z,21.18
2023-09-04T10:15:26.739Z,21.21
2023-09-04T10:18:04.103Z,21.48
2023-09-04T10:20:33.949Z,22.03
2023-09-04T10:23:09.744Z,21.56
2023-09-04T10:26:03.289Z,21.28
2023-09-04T10:28:56.850Z,21.48
2023-09-04T10:31:25.742Z,21.88
2023-09-04T10:33:54.686Z,21.54
2023-09-04T10:36:23.081Z,21.47
2023-09-04T10:38:51.229Z,21.55
2023-09-04T10:41:19.095Z,21.49
2023-09-04T10:43:46.613Z,21.41
2023-09-04T10:46:15.440Z,21.86
2023-09-04T10:48:47.406Z,21.89
2023-09-04T10:51:39.299Z,21.59
2023-09-04T10:54:15.986Z,21.89
2023-09-04T10:57:02.858Z,21.52
2023-09-04T10:59:32.040Z,21.68
2023-09-04T11:01:59.630Z,21.93
2023-09-04T11:04:47.726Z,21.73
2023-09-04T11:07:21.285Z,21.68
2023-09-04T11:09:52.591Z,21.75
2023-09-04T11:12:21.703Z,22.08
2023-09-04T11:14:53.391Z,22.95
2023-09-04T11:17:31.564Z,23.01
2023-09-04T11:20:00.468Z,22.05
2023-09-04T11:22:28.215Z,21.74
2023-09-04T11:24:56.135Z,22.49
2023-09-04T11:27:25.912Z,22.71
2023-09-04T11:29:53.796Z,23.42
2023-09-04T11:32:21.776Z,23.36
2023-09-04T11:34:51.414Z,22.93
2023-09-04T11:37:19.113Z,22.66
2023-09-04T11:40:00.743Z,22.48
2023-09-04T11:42:31.231Z,21.98
2023-09-04T11:44:58.752Z,21.98
2023-09-04T11:47:26.879Z,22.54
2023-09-04T11:49:54.599Z,22.61
2023-09-04T11:52:27.600Z,22.32
2023-09-04T11:54:55.698Z,22.78
2023-09-04T11:57:23.973Z,22.96
2023-09-04T11:59:51.581Z,22.38
2023-09-04T12:02:19.513Z,22.18
2023-09-04T12:04:47.791Z,22.28
2023-09-04T12:07:20.290Z,22.28
2023-09-04T12:09:47.859Z,22.67
2023-09-04T12:12:18.480Z,23.01
2023-09-04T12:14:46.957Z,22.63
2023-09-04T12:17:14.795Z,22.48
2023-09-04T12:19:45.649Z,22.28
2023-09-04T12:22:14.997Z,22.03
2023-09-04T12:25:07.617Z,21.85
2023-09-04T12:27:36.388Z,22.03
2023-09-04T12:30:06.084Z,22.22
2023-09-04T12:32:35.388Z,22.34
2023-09-04T12:35:07.704Z,22.20
2023-09-04T12:37:37.054Z,22.15
2023-09-04T12:40:05.713Z,22.24
2023-09-04T12:42:33.405Z,22.27
2023-09-04T12:45:01.099Z,22.50
2023-09-04T12:47:28.700Z,22.47
2023-09-04T12:49:56.286Z,22.63
2023-09-04T12:52:24.189Z,22.42
2023-09-04T12:54:51.678Z,22.30
2023-09-04T12:57:19.555Z,22.62
2023-09-04T12:59:47.051Z,22.60
2023-09-04T13:02:15.643Z,22.49
2023-09-04T13:04:43.579Z,22.16
2023-09-04T13:07:11.252Z,22.41
2023-09-04T13:09:38.977Z,22.36
2023-09-04T13:12:07.206Z,22.35
2023-09-04T13:14:34.712Z,22.15
2023-09-04T13:17:02.473Z,22.08
2023-09-04T13:19:30.213Z,21.92
2023-09-04T13:21:57.884Z,22.05
2023-09-04T13:24:25.442Z,22.14
2023-09-04T13:26:53.051Z,22.10
2023-09-04T13:29:21.862Z,22.10
2023-09-04T13:31:49.501Z,21.99
2023-09-04T13:34:17.227Z,22.22
2023-09-04T13:36:45.144Z,22.29
2023-09-04T13:39:12.703Z,22.36
2023-09-04T13:41:40.254Z,22.28
2023-09-04T13:44:07.939Z,22.20
2023-09-04T13:46:35.662Z,22.35
2023-09-04T13:49:03.479Z,22.39
2023-09-04T13:51:31.212Z,22.32
2023-09-04T13:53:58.793Z,22.46
2023-09-04T13:56:26.312Z,22.65
2023-09-04T13:58:53.921Z,22.78
2023-09-04T14:01:21.598Z,22.52
2023-09-04T14:03:49.164Z,22.31
2023-09-04T14:06:16.820Z,22.21
2023-09-04T14:08:44.404Z,21.94
2023-09-04T14:11:12.244Z,21.83
2023-09-04T14:13:39.875Z,22.01
2023-09-04T14:16:07.549Z,22.13
2023-09-04T14:18:35.057Z,22.15
2023-09-04T14:21:02.729Z,22.20
2023-09-04T14:23:30.248Z,22.36
2023-09-04T14:25:57.808Z,22.53
2023-09-04T14:28:26.309Z,22.71
2023-09-04T14:30:53.957Z,22.46
2023-09-04T14:33:21.544Z,22.47
2023-09-04T14:35:58.080Z,22.71
2023-09-04T14:38:26.021Z,22.53
2023-09-04T14:40:55.674Z,22.80
2023-09-04T14:43:23.668Z,22.74
2023-09-04T14:46:07.868Z,22.28
2023-09-04T14:48:37.820Z,22.04
2023-09-04T14:51:05.831Z,22.13
2023-09-04T14:53:33.417Z,22.04
2023-09-04T14:56:01.240Z,21.88
2023-09-04T14:58:28.845Z,21.83
2023-09-04T15:00:57.074Z,21.72
2023-09-04T15:03:25.847Z,21.87
2023-09-04T15:06:00.306Z,21.91
2023-09-04T15:08:31.597Z,21.94
2023-09-04T15:10:59.584Z,21.86
2023-09-04T15:13:27.597Z,21.86
2023-09-04T15:15:55.533Z,21.83
2023-09-04T15:18:23.470Z,21.69
2023-09-04T15:20:51.407Z,21.74
2023-09-04T15:23:19.061Z,21.92
2023-09-04T15:25:46.590Z,22.01
2023-09-04T15:28:14.079Z,22.05
2023-09-04T15:30:41.769Z,22.15
2023-09-04T15:33:09.449Z,21.94
2023-09-04T15:35:37.513Z,21.84
2023-09-04T15:38:05.048Z,21.82
2023-09-04T15:40:35.801Z,21.71
2023-09-04T15:43:04.414Z,21.80
2023-09-04T15:45:31.993Z,21.73
2023-09-04T15:48:01.188Z,21.67
2023-09-04T15:50:28.993Z,21.69
2023-09-04T15:52:56.461Z,21.76
2023-09-04T15:55:24.011Z,21.77
2023-09-04T15:57:51.555Z,21.77
2023-09-04T16:00:19.268Z,21.55
2023-09-04T16:02:46.841Z,21.60
2023-09-04T16:05:14.936Z,21.60
2023-09-04T16:07:42.361Z,21.55
2023-09-04T16:10:10.228Z,21.53
2023-09-04T16:12:37.858Z,21.43
2023-09-04T16:15:06.415Z,21.40
2023-09-04T16:17:33.935Z,21.26
2023-09-04T16:20:02.313Z,21.28
2023-09-04T16:22:29.850Z,21.26
2023-09-04T16:24:58.808Z,21.24
2023-09-04T16:27:26.638Z,21.22
2023-09-04T16:29:54.917Z,21.18
2023-09-04T16:32:22.620Z,21.12
2023-09-04T16:34:50.304Z,21.15
2023-09-04T16:37:21.454Z,21.07
2023-09-04T16:39:49.337Z,20.91
2023-09-04T16:42:17.371Z,20.90
2023-09-04T16:44:45.843Z,20.91
2023-09-04T16:47:13.330Z,20.93
2023-09-04T16:49:40.934Z,20.83
2023-09-04T16:52:08.868Z,20.83
2023-09-04T16:54:36.884Z,20.75
2023-09-04T16:57:04.582Z,20.68
2023-09-04T16:59:32.172Z,20.52
2023-09-04T17:01:59.713Z,20.51
2023-09-04T17:04:27.375Z,20.50
2023-09-04T17:06:55.737Z,20.49
2023-09-04T17:09:25.405Z,20.40
2023-09-04T17:11:53.568Z,20.31
2023-09-04T17:14:21.301Z,20.27
2023-09-04T17:16:48.855Z,20.17
2023-09-04T17:19:16.483Z,20.10
2023-09-04T17:21:44.085Z,20.08
2023-09-04T17:24:11.603Z,19.96
2023-09-04T17:26:39.253Z,19.82
2023-09-04T17:29:07.001Z,19.75
2023-09-04T17:31:34.666Z,19.74
2023-09-04T17:34:03.276Z,19.62
2023-09-04T17:36:30.830Z,19.58
2023-09-04T17:38:58.343Z,19.53
2023-09-04T17:41:25.900Z,19.47
2023-09-04T17:43:53.433Z,19.40
2023-09-04T17:46:21.197Z,19.39
2023-09-04T17:48:48.722Z,19.41
2023-09-04T17:51:16.326Z,19.38
2023-09-04T17:53:43.946Z,19.31
2023-09-04T17:56:11.570Z,19.34
2023-09-04T17:58:39.098Z,19.33
2023-09-04T18:01:06.946Z,19.33
2023-09-04T18:03:35.013Z,19.24
2023-09-04T18:06:02.712Z,19.19
2023-09-04T18:08:30.706Z,19.16
2023-09-04T18:11:05.540Z,19.17
2023-09-04T18:13:34.045Z,19.27
2023-09-04T18:16:01.626Z,19.41
2023-09-04T18:18:29.162Z,19.52
2023-09-04T18:20:57.048Z,19.47
2023-09-04T18:23:24.532Z,19.51
2023-09-04T18:25:52.117Z,19.52
2023-09-04T18:28:21.207Z,19.47
2023-09-04T18:30:51.730Z,19.46
2023-09-04T18:33:19.298Z,19.28
2023-09-04T18:35:47.188Z,19.14
2023-09-04T18:38:14.923Z,18.96
2023-09-04T18:40:42.507Z,18.90
2023-09-04T18:43:10.403Z,18.83
2023-09-04T18:45:45.655Z,18.79
2023-09-04T18:48:13.497Z,18.76
2023-09-04T18:50:41.070Z,18.72
2023-09-04T18:53:12.435Z,18.56
2023-09-04T18:55:39.966Z,18.46
2023-09-04T18:58:07.513Z,18.44
2023-09-04T19:00:36.019Z,18.40
2023-09-04T19:03:04.485Z,18.37
2023-09-04T19:05:32.610Z,18.32
2023-09-04T19:08:00.121Z,18.28
2023-09-04T19:10:27.665Z,18.29
2023-09-04T19:12:55.239Z,18.25
2023-09-04T19:15:22.871Z,18.20
2023-09-04T19:17:50.395Z,18.13
2023-09-04T19:20:20.951Z,18.04
2023-09-04T19:22:48.480Z,18.06
2023-09-04T19:25:16.219Z,18.03
2023-09-04T19:27:43.819Z,18.05
2023-09-04T19:30:11.773Z,18.02
2023-09-04T19:32:39.732Z,17.96
2023-09-04T19:35:07.719Z,17.88
2023-09-04T19:37:35.313Z,17.85
2023-09-04T19:40:08.402Z,17.79
2023-09-04T19:42:36.242Z,17.76
2023-09-04T19:45:04.220Z,17.70
2023-09-04T19:47:31.881Z,17.63
2023-09-04T19:49:59.465Z,17.61
2023-09-04T19:52:27.115Z,17.55
2023-09-04T19:54:54.605Z,17.53
2023-09-04T19:57:22.577Z,17.50
2023-09-04T19:59:50.098Z,17.56
2023-09-04T20:02:17.783Z,17.50
2023-09-04T20:04:45.436Z,17.42
2023-09-04T20:07:13.224Z,17.49
2023-09-04T20:09:40.700Z,17.50
2023-09-04T20:12:08.306Z,17.45
2023-09-04T20:14:35.771Z,17.42
2023-09-04T20:17:04.156Z,17.37
2023-09-04T20:19:32.851Z,17.36
2023-09-04T20:22:00.443Z,17.34
2023-09-04T20:24:27.850Z,17.31
2023-09-04T20:26:55.395Z,17.30
2023-09-04T20:29:22.943Z,17.26
2023-09-04T20:31:50.491Z,17.22
2023-09-04T20:34:18.021Z,17.20
2023-09-04T20:36:45.921Z,17.17
2023-09-04T20:39:13.375Z,17.19
2023-09-04T20:41:41.039Z,17.14
2023-09-04T20:44:08.590Z,17.06
2023-09-04T20:46:37.422Z,17.03
2023-09-04T20:49:05.020Z,16.97
2023-09-04T20:51:32.673Z,16.97
2023-09-04T20:54:00.184Z,16.95
2023-09-04T20:56:27.800Z,16.93
2023-09-04T20:58:55.273Z,16.89
2023-09-04T21:01:22.859Z,16.85
2023-09-04T21:03:50.379Z,16.80
2023-09-04T21:06:18.081Z,16.78
2023-09-04T21:08:45.536Z,16.83
2023-09-04T21:11:13.113Z,16.84
2023-09-04T21:13:59.525Z,16.94
2023-09-04T21:16:45.809Z,16.99
2023-09-04T21:19:32.235Z,17.02
2023-09-04T21:22:18.581Z,17.06
2023-09-04T21:25:04.854Z,17.12
2023-09-04T21:27:51.236Z,17.14
2023-09-04T21:30:37.570Z,17.10
2023-09-04T21:33:24.412Z,17.01
2023-09-04T21:36:10.744Z,16.98
2023-09-04T21:38:57.197Z,16.96
2023-09-04T21:41:43.541Z,16.95
2023-09-04T21:44:29.956Z,16.88
2023-09-04T21:47:16.253Z,16.81
2023-09-04T21:50:02.617Z,16.77
2023-09-04T21:52:48.967Z,16.68
2023-09-04T21:55:35.302Z,16.62
2023-09-04T21:58:21.587Z,16.59
2023-09-04T22:01:07.996Z,16.51
2023-09-04T22:03:55.222Z,16.44
2023-09-04T22:06:43.213Z,16.41
2023-09-04T22:09:29.337Z,16.41
2023-09-04T22:12:15.656Z,16.38
2023-09-04T22:15:01.961Z,16.38
2023-09-04T22:17:48.490Z,16.29
2023-09-04T22:20:34.782Z,16.28
2023-09-04T22:23:21.106Z,16.19
2023-09-04T22:26:07.510Z,16.15
2023-09-04T22:28:53.714Z,16.15
2023-09-04T22:31:39.987Z,16.17
2023-09-04T22:34:26.327Z,16.16
2023-09-04T22:37:12.614Z,16.19
2023-09-04T22:39:59.022Z,16.17
2023-09-04T22:43:00.144Z,16.11
2023-09-04T22:45:46.484Z,16.11
2023-09-04T22:48:32.849Z,16.03
2023-09-04T22:51:19.092Z,15.88
2023-09-04T22:54:05.242Z,15.81
2023-09-04T22:56:51.621Z,15.76
2023-09-04T22:59:37.891Z,15.76
2023-09-04T23:02:24.337Z,15.78
2023-09-04T23:05:10.794Z,15.89
2023-09-04T23:07:57.185Z,15.97
2023-09-04T23:10:43.545Z,15.95
2023-09-04T23:13:29.837Z,15.92
2023-09-04T23:16:16.171Z,15.87
2023-09-04T23:19:02.585Z,15.86
2023-09-04T23:21:30.793Z,15.90
2023-09-04T23:23:59.828Z,15.98
2023-09-04T23:26:41.900Z,16.02
2023-09-04T23:29:13.341Z,16.11
2023-09-04T23:31:46.171Z,16.16
2023-09-04T23:34:15.366Z,16.15
2023-09-04T23:36:49.035Z,16.15
2023-09-04T23:39:18.410Z,16.19
2023-09-04T23:42:05.075Z,16.23
2023-09-04T23:44:51.403Z,16.24
2023-09-04T23:47:19.056Z,16.27
2023-09-04T23:49:46.800Z,16.34
2023-09-04T23:52:16.065Z,16.38
2023-09-04T23:54:43.765Z,16.57
2023-09-04T23:57:11.622Z,16.53
2023-09-04T23:59:39.839Z,16.54
